Zlatibor, Serbia
Current Conditions -  °F | °C
As of 7:30 AM on Saturday 25 Oct 2014 (Local Time) from LYUZ Reporting Station
Light Rain Light Rain  
Wind Chill: 29°   Ceiling: 100
Heat Index: 36°   Visibility: 0.06mi
Dew Point: 36°   Wind: 8mph
Humidity: 100%   Direction: 60°ENE
Pressure: 30.09"   Gusts: NA
Location:  43.72°N, 19.7°E
Report Text: LYUZ 250530Z 06007KT 020V100 0100 -RA FG VV001 02/02 Q1019
Loading
Personal Weather Stations






























Interactive Weather Map
Tropical Storm Tracking
New forecast layout! Learn more

10-Day Weather Forecast

Advertisements
Track Severe Weather on mobile